Time;durP1;ratioP1;P1;durP2;ratioP2;P2;SDS_P1;SDS_P2;PMS_P1;PMS_P2;Temp;Humidity;BMP_temperature;BMP_pressure;BME280_temperature;BME280_humidity;BME280_pressure;Samples;Min_cycle;Max_cycle;Signal;HPM_P1;HPM_P2
2022/10/25 00:01:13;;;;;;;;;;;18.80;94.60;;;;;;5095726;28;20349;-45
2022/10/25 00:03:40;;;;;;;;;;;18.80;93.80;;;;;;5095806;28;19977;-47
2022/10/25 00:06:08;;;;;;;;;;;18.80;93.70;;;;;;5095480;28;19919;-47
2022/10/25 00:08:35;;;;;;;;;;;18.70;93.40;;;;;;5102895;28;19941;-46
2022/10/25 00:11:01;;;;;;;;;;;18.70;93.50;;;;;;5101278;28;19981;-45
2022/10/25 00:13:30;;;;;;;;;;;18.70;92.80;;;;;;5097951;28;19920;-44
2022/10/25 00:15:56;;;;;;;;;;;18.70;92.60;;;;;;5095934;28;20430;-45
2022/10/25 00:18:23;;;;;;;;;;;18.70;92.30;;;;;;5094127;28;20360;-45
2022/10/25 00:20:50;;;;;;;;;;;18.70;92.40;;;;;;5083038;28;19973;-48
2022/10/25 00:23:17;;;;;;;;;;;18.70;91.80;;;;;;5095801;28;19963;-46
2022/10/25 00:25:44;;;;;;;;;;;18.70;92.10;;;;;;5104593;28;19924;-47
2022/10/25 00:28:11;;;;;;;;;;;18.70;91.10;;;;;;5095707;28;19916;-45
2022/10/25 00:30:39;;;;;;;;;;;18.70;91.20;;;;;;5100366;28;20383;-46
2022/10/25 00:33:06;;;;;;;;;;;18.70;91.20;;;;;;5105427;28;19968;-48
2022/10/25 00:35:35;;;;;;;;;;;18.70;90.70;;;;;;5108286;28;19916;-45
2022/10/25 00:38:02;;;;;;;;;;;18.70;91.20;;;;;;5096848;28;19942;-46
2022/10/25 00:40:28;;;;;;;;;;;18.70;90.40;;;;;;5100610;28;19962;-46
2022/10/25 00:42:55;;;;;;;;;;;18.70;90.50;;;;;;5099107;28;19916;-44
2022/10/25 00:45:23;;;;;;;;;;;18.70;90.40;;;;;;5103264;28;19915;-44
2022/10/25 00:47:54;;;;;;;;;;;18.70;90.50;;;;;;5102680;28;19916;-44
2022/10/25 00:50:23;;;;;;;;;;;18.70;90.50;;;;;;5094986;28;19946;-44
2022/10/25 00:52:51;;;;;;;;;;;18.70;90.80;;;;;;5095097;28;20249;-44
2022/10/25 00:55:19;;;;;;;;;;;18.70;91.20;;;;;;5095186;28;19969;-44
2022/10/25 00:57:49;;;;;;;;;;;18.70;90.80;;;;;;5094673;28;19923;-44
2022/10/25 01:00:16;;;;;;;;;;;18.70;90.90;;;;;;5095122;28;19915;-44
2022/10/25 01:02:42;;;;;;;;;;;18.70;90.80;;;;;;5098687;28;19962;-44
2022/10/25 01:05:11;;;;;;;;;;;18.70;90.50;;;;;;5094650;28;19985;-44
2022/10/25 01:07:38;;;;;;;;;;;18.70;90.80;;;;;;5094872;28;19969;-44
2022/10/25 01:10:05;;;;;;;;;;;18.70;90.60;;;;;;5095289;28;19977;-44
2022/10/25 01:12:32;;;;;;;;;;;18.70;91.20;;;;;;5094968;28;19916;-44
2022/10/25 01:14:58;;;;;;;;;;;18.70;90.50;;;;;;5094905;28;19916;-44
2022/10/25 01:17:29;;;;;;;;;;;18.60;90.30;;;;;;5110986;28;20253;-44
2022/10/25 01:20:10;;;;;;;;;;;18.60;90.40;;;;;;5082988;28;19970;-45
2022/10/25 01:22:40;;;;;;;;;;;18.60;90.00;;;;;;5082631;28;19916;-47
2022/10/25 01:25:26;;;;;;;;;;;18.60;90.50;;;;;;5094201;28;19919;-47
2022/10/25 01:28:01;;;;;;;;;;;18.60;90.10;;;;;;5094299;28;20024;-44
2022/10/25 01:30:32;;;;;;;;;;;18.60;89.60;;;;;;5095518;28;19927;-45
2022/10/25 01:33:10;;;;;;;;;;;18.60;89.30;;;;;;5094343;28;20414;-45
2022/10/25 01:35:40;;;;;;;;;;;18.60;89.40;;;;;;5094043;28;19969;-44
2022/10/25 01:38:12;;;;;;;;;;;18.60;89.50;;;;;;5103457;28;19919;-47
2022/10/25 01:40:44;;;;;;;;;;;18.60;88.20;;;;;;5108934;28;19919;-47
2022/10/25 01:43:14;;;;;;;;;;;18.60;88.30;;;;;;5094593;28;19969;-47
2022/10/25 01:45:42;;;;;;;;;;;18.60;87.20;;;;;;5095463;28;19969;-43
2022/10/25 01:48:14;;;;;;;;;;;18.60;86.60;;;;;;5096568;28;19920;-44
2022/10/25 01:50:42;;;;;;;;;;;18.60;86.60;;;;;;5096563;28;19915;-44
2022/10/25 01:53:09;;;;;;;;;;;18.60;85.70;;;;;;5094086;28;19919;-44
2022/10/25 01:55:39;;;;;;;;;;;18.60;85.00;;;;;;5094055;28;19916;-44
2022/10/25 01:58:11;;;;;;;;;;;18.60;86.70;;;;;;5094033;28;19969;-45
2022/10/25 02:00:43;;;;;;;;;;;18.60;99.90;;;;;;5093815;28;19923;-45
2022/10/25 02:03:15;;;;;;;;;;;18.60;86.50;;;;;;5094822;28;20022;-44
2022/10/25 02:05:47;;;;;;;;;;;18.60;84.40;;;;;;5099925;28;19994;-44
2022/10/25 02:08:17;;;;;;;;;;;18.60;85.60;;;;;;5093184;28;20349;-45
2022/10/25 02:10:46;;;;;;;;;;;18.50;84.00;;;;;;5093920;28;20241;-44
2022/10/25 02:13:17;;;;;;;;;;;18.60;83.10;;;;;;5094120;28;19919;-44
2022/10/25 02:15:48;;;;;;;;;;;18.60;83.80;;;;;;5102353;28;19946;-45
2022/10/25 02:18:19;;;;;;;;;;;18.60;82.30;;;;;;5082198;28;19961;-44
2022/10/25 02:20:47;;;;;;;;;;;18.50;99.10;;;;;;5075682;28;20442;-44
2022/10/25 02:23:14;;;;;;;;;;;18.50;81.80;;;;;;5078930;28;20311;-47
2022/10/25 02:25:42;;;;;;;;;;;18.60;80.60;;;;;;5091725;28;20360;-47
2022/10/25 02:28:10;;;;;;;;;;;18.50;81.00;;;;;;5080874;28;19977;-45
2022/10/25 02:30:37;;;;;;;;;;;18.60;82.10;;;;;;5094189;28;19915;-46
2022/10/25 02:33:04;;;;;;;;;;;18.60;80.60;;;;;;5079245;28;19961;-46
2022/10/25 02:35:33;;;;;;;;;;;18.60;79.90;;;;;;5088932;28;19924;-43
2022/10/25 02:38:00;;;;;;;;;;;18.60;79.20;;;;;;5093282;28;19919;-46
2022/10/25 02:40:27;;;;;;;;;;;18.60;78.70;;;;;;5102066;28;19916;-46
2022/10/25 02:42:53;;;;;;;;;;;18.60;79.40;;;;;;5106484;28;19984;-46
2022/10/25 02:45:20;;;;;;;;;;;18.60;79.00;;;;;;5094117;28;19923;-47
2022/10/25 02:47:47;;;;;;;;;;;18.50;79.30;;;;;;5093268;28;20327;-48
2022/10/25 02:50:14;;;;;;;;;;;18.60;77.90;;;;;;5093020;28;20319;-47
2022/10/25 02:52:42;;;;;;;;;;;18.50;77.10;;;;;;5081436;28;20345;-47
2022/10/25 02:55:09;;;;;;;;;;;18.60;77.30;;;;;;5092792;28;19969;-46
2022/10/25 02:57:36;;;;;;;;;;;18.50;76.90;;;;;;5092916;28;19969;-47
2022/10/25 03:00:03;;;;;;;;;;;18.50;78.50;;;;;;5103913;28;19924;-45
2022/10/25 03:02:30;;;;;;;;;;;18.50;77.30;;;;;;5102104;28;19920;-44
2022/10/25 03:04:56;;;;;;;;;;;18.50;75.10;;;;;;5092762;28;19969;-44
2022/10/25 03:07:23;;;;;;;;;;;18.50;76.10;;;;;;5092452;28;19996;-45
2022/10/25 03:09:51;;;;;;;;;;;18.50;76.10;;;;;;5092511;28;19924;-45
2022/10/25 03:12:18;;;;;;;;;;;18.50;76.40;;;;;;5092140;28;19961;-45
2022/10/25 03:14:45;;;;;;;;;;;18.50;75.00;;;;;;5103047;28;20009;-44
2022/10/25 03:17:11;;;;;;;;;;;18.50;73.70;;;;;;5096683;28;19916;-44
2022/10/25 03:19:38;;;;;;;;;;;18.50;73.60;;;;;;5099828;28;19916;-44
2022/10/25 03:22:05;;;;;;;;;;;18.50;73.90;;;;;;5098455;28;19997;-44
2022/10/25 03:24:32;;;;;;;;;;;18.50;72.30;;;;;;5094023;28;20005;-47
2022/10/25 03:27:01;;;;;;;;;;;18.50;72.50;;;;;;5107777;28;19961;-44
2022/10/25 03:29:27;;;;;;;;;;;18.50;73.00;;;;;;5096531;28;19923;-47
2022/10/25 03:31:54;;;;;;;;;;;18.50;73.50;;;;;;5092563;28;19916;-48
2022/10/25 03:34:21;;;;;;;;;;;18.50;71.50;;;;;;5092418;28;19920;-44
2022/10/25 03:36:48;;;;;;;;;;;18.50;70.70;;;;;;5092222;28;20307;-47
2022/10/25 03:39:15;;;;;;;;;;;18.50;70.50;;;;;;5092223;28;20357;-46
2022/10/25 03:41:41;;;;;;;;;;;18.50;69.40;;;;;;5093586;28;20356;-43
2022/10/25 03:44:09;;;;;;;;;;;18.50;69.90;;;;;;5092228;28;20368;-43
2022/10/25 03:46:36;;;;;;;;;;;18.50;70.00;;;;;;5092692;28;19916;-45
2022/10/25 03:49:03;;;;;;;;;;;18.50;68.80;;;;;;5092574;28;19919;-44
2022/10/25 03:51:30;;;;;;;;;;;18.50;69.80;;;;;;5092923;28;19997;-44
2022/10/25 03:53:56;;;;;;;;;;;18.50;68.50;;;;;;5093943;28;19916;-44
2022/10/25 03:56:23;;;;;;;;;;;18.50;68.40;;;;;;5092574;28;19969;-44
2022/10/25 03:58:50;;;;;;;;;;;18.50;69.00;;;;;;5092211;28;19923;-44
2022/10/25 04:01:18;;;;;;;;;;;18.50;67.80;;;;;;5092534;28;19928;-44
2022/10/25 04:03:45;;;;;;;;;;;18.50;67.70;;;;;;5092494;28;19916;-44
2022/10/25 04:06:12;;;;;;;;;;;18.50;68.80;;;;;;5092266;28;19920;-44
2022/10/25 04:08:38;;;;;;;;;;;18.50;67.20;;;;;;5102195;28;19916;-44
2022/10/25 04:11:05;;;;;;;;;;;18.40;66.40;;;;;;5090628;28;19927;-47
2022/10/25 04:13:32;;;;;;;;;;;18.50;66.60;;;;;;5091424;28;19916;-44
2022/10/25 04:16:00;;;;;;;;;;;18.50;65.30;;;;;;5092375;28;19916;-44
2022/10/25 04:18:28;;;;;;;;;;;18.40;65.90;;;;;;5092500;28;20314;-47
2022/10/25 04:20:55;;;;;;;;;;;18.40;66.20;;;;;;5092084;28;19961;-45
2022/10/25 04:23:21;;;;;;;;;;;18.40;65.50;;;;;;5094528;28;19920;-45
2022/10/25 04:25:48;;;;;;;;;;;18.40;65.70;;;;;;5089539;28;19923;-47
2022/10/25 04:28:15;;;;;;;;;;;18.40;67.10;;;;;;5087739;28;19916;-44
2022/10/25 04:30:42;;;;;;;;;;;18.40;66.10;;;;;;5095953;28;20473;-44
2022/10/25 04:33:08;;;;;;;;;;;18.40;66.40;;;;;;5103026;28;20314;-43
2022/10/25 04:35:36;;;;;;;;;;;18.40;65.40;;;;;;5095528;28;20410;-44
2022/10/25 04:38:03;;;;;;;;;;;18.40;66.70;;;;;;5095861;28;19916;-44
2022/10/25 04:40:30;;;;;;;;;;;18.40;67.40;;;;;;5086626;28;19923;-44
2022/10/25 04:43:01;;;;;;;;;;;18.40;68.30;;;;;;5083411;28;19917;-42
2022/10/25 04:45:27;;;;;;;;;;;18.40;67.70;;;;;;5093117;28;20645;-46
2022/10/25 04:47:54;;;;;;;;;;;18.40;66.90;;;;;;5092105;28;19916;-46
2022/10/25 04:50:21;;;;;;;;;;;18.40;68.50;;;;;;5085773;28;20025;-45
2022/10/25 04:52:49;;;;;;;;;;;18.40;68.90;;;;;;5091763;28;19916;-43
2022/10/25 04:55:16;;;;;;;;;;;18.40;70.30;;;;;;5082225;28;19970;-44
2022/10/25 04:57:42;;;;;;;;;;;18.40;68.30;;;;;;5099943;28;20322;-44
2022/10/25 05:00:10;;;;;;;;;;;18.40;69.20;;;;;;5095194;28;20356;-46
2022/10/25 05:02:37;;;;;;;;;;;18.40;70.50;;;;;;5094807;28;20303;-47
2022/10/25 05:05:04;;;;;;;;;;;18.40;70.40;;;;;;5103109;28;19920;-46
2022/10/25 05:07:30;;;;;;;;;;;18.40;70.60;;;;;;5091830;28;19924;-46
2022/10/25 05:09:59;;;;;;;;;;;18.40;71.60;;;;;;5095086;28;19916;-47
2022/10/25 05:12:25;;;;;;;;;;;18.40;72.40;;;;;;5095103;28;19916;-44
2022/10/25 05:14:52;;;;;;;;;;;18.40;72.10;;;;;;5094838;28;19915;-47
2022/10/25 05:17:19;;;;;;;;;;;18.40;71.70;;;;;;5098103;28;19932;-50
2022/10/25 05:19:46;;;;;;;;;;;18.40;72.50;;;;;;5114207;28;19916;-47
2022/10/25 05:22:13;;;;;;;;;;;18.40;71.70;;;;;;5115391;28;19969;-43
2022/10/25 05:24:39;;;;;;;;;;;18.40;73.10;;;;;;5115328;28;20367;-46
2022/10/25 05:27:08;;;;;;;;;;;18.40;72.40;;;;;;5115617;28;19996;-46
2022/10/25 05:29:35;;;;;;;;;;;18.40;74.20;;;;;;5115457;28;19920;-46
2022/10/25 05:32:01;;;;;;;;;;;18.40;73.80;;;;;;5115308;28;20364;-44
2022/10/25 05:34:28;;;;;;;;;;;18.40;74.50;;;;;;5114505;28;19916;-45
2022/10/25 05:36:55;;;;;;;;;;;18.40;76.10;;;;;;5115412;28;20322;-44
2022/10/25 05:39:22;;;;;;;;;;;18.40;75.60;;;;;;5115445;28;20314;-45
2022/10/25 05:41:49;;;;;;;;;;;18.40;75.60;;;;;;5114978;28;20356;-47
2022/10/25 05:44:17;;;;;;;;;;;18.40;76.10;;;;;;5115240;28;20010;-43
2022/10/25 05:46:44;;;;;;;;;;;18.40;76.80;;;;;;5115281;28;19975;-45
2022/10/25 05:49:12;;;;;;;;;;;18.50;78.10;;;;;;5114893;28;20313;-45
2022/10/25 05:51:38;;;;;;;;;;;18.40;78.70;;;;;;5114774;28;19969;-45
2022/10/25 05:54:06;;;;;;;;;;;18.40;77.50;;;;;;5115395;28;19919;-46
2022/10/25 05:56:33;;;;;;;;;;;18.40;79.80;;;;;;5115217;28;19960;-46
2022/10/25 05:59:01;;;;;;;;;;;18.40;79.80;;;;;;5114628;28;19936;-43
2022/10/25 06:01:29;;;;;;;;;;;18.40;80.90;;;;;;5114599;28;19972;-44
2022/10/25 06:03:56;;;;;;;;;;;18.40;81.60;;;;;;5114948;28;19961;-46
2022/10/25 06:06:23;;;;;;;;;;;18.40;83.00;;;;;;5114504;28;19915;-43
2022/10/25 06:08:50;;;;;;;;;;;18.40;82.60;;;;;;5114866;28;19919;-44
2022/10/25 06:11:18;;;;;;;;;;;18.40;84.10;;;;;;5114789;28;19968;-47
2022/10/25 06:13:45;;;;;;;;;;;18.40;83.90;;;;;;5114686;28;20309;-47
2022/10/25 06:16:13;;;;;;;;;;;18.40;84.10;;;;;;5114400;27;20326;-52
2022/10/25 06:18:41;;;;;;;;;;;18.40;85.30;;;;;;5114331;28;19916;-43
2022/10/25 06:21:09;;;;;;;;;;;18.40;85.40;;;;;;5114499;28;19915;-49
2022/10/25 06:23:36;;;;;;;;;;;18.50;85.90;;;;;;5114712;28;19922;-48
2022/10/25 06:26:04;;;;;;;;;;;18.40;87.30;;;;;;5114074;28;19922;-44
2022/10/25 06:28:31;;;;;;;;;;;18.40;87.10;;;;;;5114088;28;19919;-44
2022/10/25 06:31:00;;;;;;;;;;;18.40;88.00;;;;;;5114377;28;19916;-44
2022/10/25 06:33:27;;;;;;;;;;;18.40;90.20;;;;;;5113978;28;20425;-44
2022/10/25 06:35:56;;;;;;;;;;;18.40;89.10;;;;;;5113939;27;19916;-44
2022/10/25 06:38:22;;;;;;;;;;;18.40;90.50;;;;;;5113896;28;20363;-44
2022/10/25 06:40:49;;;;;;;;;;;18.40;90.30;;;;;;5114188;28;19915;-49
2022/10/25 06:43:16;;;;;;;;;;;18.40;90.40;;;;;;5114178;28;19960;-48
2022/10/25 06:45:43;;;;;;;;;;;18.40;90.40;;;;;;5112831;28;19961;-46
2022/10/25 06:48:10;;;;;;;;;;;18.40;90.60;;;;;;5114377;28;19939;-49
2022/10/25 06:50:36;;;;;;;;;;;18.50;91.00;;;;;;5114446;28;19915;-54
2022/10/25 06:53:05;;;;;;;;;;;18.40;92.10;;;;;;5113597;28;19923;-47
2022/10/25 06:55:31;;;;;;;;;;;18.40;91.40;;;;;;5113555;28;20296;-45
2022/10/25 06:57:58;;;;;;;;;;;18.50;91.60;;;;;;5113506;28;20356;-44
2022/10/25 07:00:25;;;;;;;;;;;18.50;91.90;;;;;;5113855;28;19922;-44
2022/10/25 07:02:55;;;;;;;;;;;18.40;92.40;;;;;;5113795;28;19964;-43
2022/10/25 07:05:22;;;;;;;;;;;18.50;92.40;;;;;;5113366;28;19919;-44
2022/10/25 07:07:49;;;;;;;;;;;18.50;92.10;;;;;;5113774;28;20361;-46
2022/10/25 07:10:18;;;;;;;;;;;18.50;92.80;;;;;;5113296;28;19920;-52
2022/10/25 07:12:45;;;;;;;;;;;18.50;93.00;;;;;;5113619;28;19916;-55
2022/10/25 07:15:12;;;;;;;;;;;18.50;92.70;;;;;;5113564;28;20314;-46
2022/10/25 07:17:39;;;;;;;;;;;18.40;93.00;;;;;;5113518;28;19916;-50
2022/10/25 07:20:06;;;;;;;;;;;18.50;92.80;;;;;;5113480;28;19919;-47
2022/10/25 07:22:33;;;;;;;;;;;18.50;92.80;;;;;;5113258;28;20676;-44
2022/10/25 07:25:00;;;;;;;;;;;18.50;93.00;;;;;;5113078;28;19969;-48
2022/10/25 07:27:31;;;;;;;;;;;18.40;92.90;;;;;;5113173;28;20253;-47
2022/10/25 07:29:57;;;;;;;;;;;18.50;93.50;;;;;;5113605;28;19922;-49
2022/10/25 07:32:25;;;;;;;;;;;18.50;93.40;;;;;;5113040;28;20389;-49
2022/10/25 07:34:51;;;;;;;;;;;18.50;93.70;;;;;;5113474;28;19923;-48
2022/10/25 07:37:18;;;;;;;;;;;18.50;93.20;;;;;;5113229;28;19916;-47
2022/10/25 07:39:45;;;;;;;;;;;18.50;93.60;;;;;;5113085;28;19915;-52
2022/10/25 07:42:12;;;;;;;;;;;18.50;93.50;;;;;;5113219;28;19915;-53
2022/10/25 07:44:40;;;;;;;;;;;18.50;93.60;;;;;;5113277;28;19915;-54
2022/10/25 07:47:07;;;;;;;;;;;18.50;93.90;;;;;;5113149;28;19915;-45
2022/10/25 07:49:35;;;;;;;;;;;18.50;93.60;;;;;;5113283;28;20313;-47
2022/10/25 07:52:02;;;;;;;;;;;18.50;92.40;;;;;;5113283;28;19934;-50
2022/10/25 07:54:29;;;;;;;;;;;18.60;92.60;;;;;;5113303;28;20006;-50
2022/10/25 07:56:55;;;;;;;;;;;18.60;92.00;;;;;;5113743;28;19916;-54
2022/10/25 07:59:22;;;;;;;;;;;18.60;90.80;;;;;;5116952;28;20024;-51
2022/10/25 08:01:50;;;;;;;;;;;18.60;90.20;;;;;;5117271;28;19915;-47
2022/10/25 08:04:17;;;;;;;;;;;18.60;90.10;;;;;;5117292;28;19915;-49
2022/10/25 08:06:44;;;;;;;;;;;18.60;88.40;;;;;;5117443;28;19924;-47
2022/10/25 08:09:11;;;;;;;;;;;18.60;86.80;;;;;;5116816;28;19915;-46
2022/10/25 08:11:38;;;;;;;;;;;18.60;86.40;;;;;;5117169;28;19915;-52
2022/10/25 08:14:05;;;;;;;;;;;18.60;86.50;;;;;;5116970;28;19985;-49
2022/10/25 08:16:32;;;;;;;;;;;18.60;99.90;;;;;;5116959;28;19915;-49
2022/10/25 08:19:00;;;;;;;;;;;18.60;85.10;;;;;;5117026;28;19916;-46
2022/10/25 08:21:27;;;;;;;;;;;18.60;85.10;;;;;;5116850;28;19916;-49
2022/10/25 08:23:54;;;;;;;;;;;18.60;85.50;;;;;;5116465;28;19934;-50
2022/10/25 08:26:25;;;;;;;;;;;18.60;84.70;;;;;;5116770;28;19916;-50
2022/10/25 08:28:52;;;;;;;;;;;18.60;84.90;;;;;;5116599;28;20352;-45
2022/10/25 08:31:18;;;;;;;;;;;18.60;83.60;;;;;;5116400;28;20301;-47
2022/10/25 08:33:45;;;;;;;;;;;18.60;82.80;;;;;;5116570;28;19922;-48
2022/10/25 08:36:14;;;;;;;;;;;18.60;81.80;;;;;;5116227;28;19983;-48
2022/10/25 08:38:40;;;;;;;;;;;18.60;82.80;;;;;;5116218;28;20237;-49
2022/10/25 08:41:10;;;;;;;;;;;18.60;80.90;;;;;;5116167;28;19923;-46
2022/10/25 08:43:45;;;;;;;;;;;18.60;81.90;;;;;;5116536;28;19919;-46
2022/10/25 08:46:16;;;;;;;;;;;18.60;83.20;;;;;;5116371;28;19915;-47
2022/10/25 08:48:46;;;;;;;;;;;18.60;82.20;;;;;;5116141;28;19916;-46
2022/10/25 08:51:20;;;;;;;;;;;18.70;81.70;;;;;;5116625;28;19923;-48
2022/10/25 08:53:50;;;;;;;;;;;18.60;81.60;;;;;;5116568;28;19922;-47
2022/10/25 08:56:18;;;;;;;;;;;18.60;81.60;;;;;;5116453;28;19916;-53
2022/10/25 08:58:47;;;;;;;;;;;18.60;82.00;;;;;;5116112;28;19922;-51
2022/10/25 09:01:16;;;;;;;;;;;18.60;82.60;;;;;;5116187;28;19922;-49
2022/10/25 09:03:43;;;;;;;;;;;18.60;99.20;;;;;;5115724;28;20371;-47
2022/10/25 09:06:16;;;;;;;;;;;18.60;81.90;;;;;;5115822;28;19938;-48
2022/10/25 09:08:50;;;;;;;;;;;18.60;83.10;;;;;;5114711;28;19923;-54
2022/10/25 09:11:22;;;;;;;;;;;18.60;82.10;;;;;;5115876;28;20356;-49
2022/10/25 09:13:52;;;;;;;;;;;18.60;83.90;;;;;;5115896;28;20291;-48
2022/10/25 09:16:19;;;;;;;;;;;18.60;82.90;;;;;;5115750;28;19915;-50
2022/10/25 09:18:49;;;;;;;;;;;18.60;81.40;;;;;;5115713;28;19916;-48
2022/10/25 09:21:17;;;;;;;;;;;18.60;83.40;;;;;;5115529;28;19955;-52
2022/10/25 09:23:48;;;;;;;;;;;18.60;82.50;;;;;;5115651;28;19919;-51
2022/10/25 09:26:20;;;;;;;;;;;18.60;81.00;;;;;;5115579;28;19919;-47
2022/10/25 09:28:51;;;;;;;;;;;18.60;81.80;;;;;;5115267;28;19923;-45
2022/10/25 09:31:19;;;;;;;;;;;18.60;81.70;;;;;;5115845;28;19915;-45
2022/10/25 09:33:47;;;;;;;;;;;18.60;80.80;;;;;;5115521;28;19915;-45
2022/10/25 09:36:14;;;;;;;;;;;18.60;81.20;;;;;;5115090;28;19919;-47
2022/10/25 09:38:44;;;;;;;;;;;18.60;79.50;;;;;;5115115;28;19922;-51
2022/10/25 09:41:14;;;;;;;;;;;18.60;79.00;;;;;;5114843;28;19916;-48
2022/10/25 09:43:46;;;;;;;;;;;18.60;79.10;;;;;;5115343;28;19974;-52
2022/10/25 09:46:13;;;;;;;;;;;18.60;78.90;;;;;;5114887;28;19923;-45
2022/10/25 09:48:45;;;;;;;;;;;18.60;78.10;;;;;;5115196;28;19969;-45
2022/10/25 09:51:14;;;;;;;;;;;18.70;82.30;;;;;;5114895;28;19915;-45
2022/10/25 09:53:41;;;;;;;;;;;18.90;73.10;;;;;;5114811;28;19969;-45
2022/10/25 09:56:08;;;;;;;;;;;19.10;59.90;;;;;;5115054;28;19967;-45
2022/10/25 09:58:38;;;;;;;;;;;19.20;54.40;;;;;;5114645;28;19973;-45
2022/10/25 10:01:08;;;;;;;;;;;19.40;44.10;;;;;;5114611;28;20409;-45
2022/10/25 10:03:36;;;;;;;;;;;19.50;36.60;;;;;;5115274;28;19919;-45
2022/10/25 10:06:04;;;;;;;;;;;19.60;29.40;;;;;;5114587;28;19916;-45
2022/10/25 10:08:32;;;;;;;;;;;19.70;24.20;;;;;;5114985;28;19915;-44
2022/10/25 10:10:59;;;;;;;;;;;19.70;22.90;;;;;;5114771;28;19968;-45
2022/10/25 10:13:29;;;;;;;;;;;19.60;39.30;;;;;;5114982;28;20329;-44
2022/10/25 10:15:57;;;;;;;;;;;19.60;19.90;;;;;;5114545;28;20364;-45
2022/10/25 10:18:27;;;;;;;;;;;19.50;20.70;;;;;;5114990;28;19961;-49
2022/10/25 10:21:06;;;;;;;;;;;19.50;21.20;;;;;;5114721;28;19927;-51
2022/10/25 10:23:35;;;;;;;;;;;19.40;22.30;;;;;;5114181;28;19923;-43
2022/10/25 10:26:03;;;;;;;;;;;19.40;21.10;;;;;;5114399;28;19942;-46
2022/10/25 10:28:30;;;;;;;;;;;19.40;22.30;;;;;;5114147;28;20318;-44
2022/10/25 10:30:58;;;;;;;;;;;19.30;21.70;;;;;;5114648;27;19920;-46
2022/10/25 10:33:27;;;;;;;;;;;19.30;22.90;;;;;;5114543;28;19919;-48
2022/10/25 10:35:54;;;;;;;;;;;19.20;23.50;;;;;;5114434;28;19915;-45
2022/10/25 10:38:22;;;;;;;;;;;19.20;23.70;;;;;;5113960;28;20010;-43
2022/10/25 10:40:49;;;;;;;;;;;19.10;25.50;;;;;;5114172;28;19923;-44
2022/10/25 10:43:23;;;;;;;;;;;19.10;26.20;;;;;;5114108;28;19916;-45
2022/10/25 10:45:50;;;;;;;;;;;19.10;27.90;;;;;;5114104;28;19919;-47
2022/10/25 10:48:19;;;;;;;;;;;19.00;27.60;;;;;;5114027;28;19919;-48
2022/10/25 10:50:49;;;;;;;;;;;19.00;27.80;;;;;;5114024;28;20259;-45
2022/10/25 10:53:19;;;;;;;;;;;19.00;28.90;;;;;;5113945;28;19923;-46
2022/10/25 10:55:47;;;;;;;;;;;19.00;29.50;;;;;;5114236;28;19984;-47
2022/10/25 10:58:16;;;;;;;;;;;19.00;31.00;;;;;;5113548;28;19915;-43
2022/10/25 11:00:49;;;;;;;;;;;19.00;30.00;;;;;;5113499;28;19976;-44
2022/10/25 11:03:30;;;;;;;;;;;19.00;30.90;;;;;;5113529;28;20292;-48
2022/10/25 11:05:59;;;;;;;;;;;19.00;30.50;;;;;;5113379;28;19960;-46
2022/10/25 11:08:26;;;;;;;;;;;19.10;30.00;;;;;;5113676;28;20348;-45
2022/10/25 11:11:11;;;;;;;;;;;19.10;30.00;;;;;;5113660;27;19915;-45
2022/10/25 11:13:38;;;;;;;;;;;19.10;29.70;;;;;;5113739;28;19972;-45
2022/10/25 11:16:32;;;;;;;;;;;19.00;29.50;;;;;;5113332;28;19920;-45
2022/10/25 11:19:06;;;;;;;;;;;19.10;30.50;;;;;;5113846;28;19915;-43
2022/10/25 11:21:39;;;;;;;;;;;19.10;30.50;;;;;;5113309;28;20321;-49
2022/10/25 11:24:09;;;;;;;;;;;19.10;31.00;;;;;;5113598;28;19915;-45
2022/10/25 11:26:45;;;;;;;;;;;19.10;30.40;;;;;;5113450;28;20302;-46
2022/10/25 11:29:15;;;;;;;;;;;19.00;30.70;;;;;;5113198;28;19961;-51
2022/10/25 11:31:56;;;;;;;;;;;19.00;30.50;;;;;;5112917;28;19968;-47
2022/10/25 11:34:29;;;;;;;;;;;19.00;31.70;;;;;;5113500;28;19915;-46
2022/10/25 11:37:06;;;;;;;;;;;19.00;30.60;;;;;;5113440;28;19916;-47
2022/10/25 11:39:37;;;;;;;;;;;19.00;30.80;;;;;;5113511;28;19965;-45
2022/10/25 11:42:12;;;;;;;;;;;18.90;32.10;;;;;;5113455;28;19915;-50
2022/10/25 11:44:44;;;;;;;;;;;18.90;32.60;;;;;;5113050;28;20344;-48
2022/10/25 11:47:15;;;;;;;;;;;18.90;32.20;;;;;;5112929;28;20356;-45
2022/10/25 11:49:53;;;;;;;;;;;18.90;31.90;;;;;;5113045;28;19923;-48
2022/10/25 11:52:31;;;;;;;;;;;18.90;32.60;;;;;;5113025;28;19969;-49
2022/10/25 11:55:04;;;;;;;;;;;18.90;33.50;;;;;;5113093;28;19916;-45
2022/10/25 11:57:35;;;;;;;;;;;18.90;33.60;;;;;;5113026;28;19916;-47
2022/10/25 12:00:05;;;;;;;;;;;18.90;34.30;;;;;;5113159;28;19926;-47
2022/10/25 12:02:45;;;;;;;;;;;18.90;34.30;;;;;;5113388;28;19962;-45
2022/10/25 12:05:18;;;;;;;;;;;18.90;34.00;;;;;;5113223;28;19920;-45
2022/10/25 12:07:50;;;;;;;;;;;18.90;34.10;;;;;;5113163;28;19923;-45
2022/10/25 12:10:21;;;;;;;;;;;18.90;34.50;;;;;;5112815;28;19915;-49
2022/10/25 12:12:50;;;;;;;;;;;18.90;33.30;;;;;;5112770;28;20260;-50
2022/10/25 12:15:20;;;;;;;;;;;18.90;32.10;;;;;;5112977;28;19967;-48
2022/10/25 12:17:47;;;;;;;;;;;18.90;32.90;;;;;;5112994;28;19916;-44
2022/10/25 12:23:09;;;;;;;;;;;18.90;31.70;;;;;;5113082;28;20304;-45
2022/10/25 12:25:39;;;;;;;;;;;18.90;31.50;;;;;;5113017;28;19915;-48
2022/10/25 12:28:10;;;;;;;;;;;18.90;31.10;;;;;;5113054;28;19919;-47
2022/10/25 12:30:37;;;;;;;;;;;18.90;31.70;;;;;;5112937;28;19916;-43
2022/10/25 12:33:12;;;;;;;;;;;18.90;31.20;;;;;;5113093;28;19916;-51
2022/10/25 12:35:42;;;;;;;;;;;18.90;30.80;;;;;;5112511;28;19916;-46
2022/10/25 12:38:15;;;;;;;;;;;18.90;30.50;;;;;;5112837;28;19916;-48
2022/10/25 12:40:44;;;;;;;;;;;18.90;30.00;;;;;;5112558;28;20252;-46
2022/10/25 12:43:16;;;;;;;;;;;18.90;29.80;;;;;;5112734;28;19916;-47
2022/10/25 12:45:49;;;;;;;;;;;18.90;31.10;;;;;;5115568;28;19922;-50
2022/10/25 12:48:24;;;;;;;;;;;18.90;29.50;;;;;;5116427;28;19990;-50
2022/10/25 12:50:59;;;;;;;;;;;18.90;30.80;;;;;;5116103;28;20002;-46
2022/10/25 12:53:48;;;;;;;;;;;18.90;30.00;;;;;;5116390;28;19919;-48
2022/10/25 12:56:23;;;;;;;;;;;18.90;29.30;;;;;;5116363;28;19916;-46
2022/10/25 12:58:55;;;;;;;;;;;18.90;30.30;;;;;;5116217;28;19961;-50
2022/10/25 13:01:38;;;;;;;;;;;18.80;30.00;;;;;;5116269;28;19915;-43
2022/10/25 13:04:20;;;;;;;;;;;18.90;31.00;;;;;;5116550;28;19915;-45
2022/10/25 13:06:48;;;;;;;;;;;18.90;30.50;;;;;;5114651;28;19920;-49
2022/10/25 13:09:17;;;;;;;;;;;18.90;30.00;;;;;;5115682;28;19919;-48
2022/10/25 13:11:49;;;;;;;;;;;18.90;30.60;;;;;;5115874;28;19915;-45
2022/10/25 13:14:24;;;;;;;;;;;18.80;31.40;;;;;;5115952;28;19973;-48
2022/10/25 13:16:50;;;;;;;;;;;18.80;29.80;;;;;;5102807;28;19924;-45
2022/10/25 13:19:25;;;;;;;;;;;18.90;29.60;;;;;;5104866;28;19962;-45
2022/10/25 13:22:06;;;;;;;;;;;18.90;31.40;;;;;;5098930;28;20294;-49
2022/10/25 13:24:37;;;;;;;;;;;18.90;29.90;;;;;;5097754;28;20429;-46
2022/10/25 13:27:13;;;;;;;;;;;18.90;30.00;;;;;;5108323;28;19982;-46
2022/10/25 13:30:00;;;;;;;;;;;18.90;30.50;;;;;;5101245;28;20014;-44
2022/10/25 13:32:27;;;;;;;;;;;18.90;28.60;;;;;;5114253;28;19916;-44
2022/10/25 13:34:57;;;;;;;;;;;18.90;29.10;;;;;;5105922;28;19916;-43
2022/10/25 13:37:41;;;;;;;;;;;18.90;28.70;;;;;;5095273;28;19923;-48
2022/10/25 13:40:17;;;;;;;;;;;18.90;28.90;;;;;;5075068;28;19924;-52
2022/10/25 13:42:44;;;;;;;;;;;18.90;48.60;;;;;;5074885;28;19970;-47
2022/10/25 13:45:20;;;;;;;;;;;18.90;26.60;;;;;;5089228;28;19941;-49
2022/10/25 13:47:49;;;;;;;;;;;18.90;27.30;;;;;;5094804;28;19961;-45
2022/10/25 13:50:17;;;;;;;;;;;18.90;27.30;;;;;;5094517;28;19916;-48
2022/10/25 13:52:46;;;;;;;;;;;18.90;27.50;;;;;;5096095;28;19947;-46
2022/10/25 13:55:14;;;;;;;;;;;18.90;27.30;;;;;;5093860;28;20415;-47
2022/10/25 13:57:48;;;;;;;;;;;18.80;26.50;;;;;;5093423;28;19920;-49
2022/10/25 14:00:30;;;;;;;;;;;18.90;26.70;;;;;;5094606;28;19916;-44
2022/10/25 14:03:21;;;;;;;;;;;18.90;26.80;;;;;;5089999;28;19922;-47
2022/10/25 14:06:11;;;;;;;;;;;18.90;26.50;;;;;;5092911;28;19915;-45
2022/10/25 14:08:46;;;;;;;;;;;18.90;26.50;;;;;;5091220;28;19916;-44
2022/10/25 14:11:14;;;;;;;;;;;18.90;26.70;;;;;;5093652;28;19934;-44
2022/10/25 14:13:46;;;;;;;;;;;18.80;26.80;;;;;;5094514;28;19976;-44
2022/10/25 14:16:17;;;;;;;;;;;18.80;25.60;;;;;;5104536;28;19941;-44
2022/10/25 14:18:46;;;;;;;;;;;18.80;25.70;;;;;;5114810;28;19919;-44
2022/10/25 14:21:13;;;;;;;;;;;18.80;26.60;;;;;;5114125;28;19969;-44
2022/10/25 14:23:40;;;;;;;;;;;18.80;25.40;;;;;;5114160;28;20294;-44
2022/10/25 14:26:13;;;;;;;;;;;18.80;25.70;;;;;;5098905;28;19924;-46
2022/10/25 14:28:40;;;;;;;;;;;18.80;26.00;;;;;;5093806;28;20455;-44
2022/10/25 14:31:07;;;;;;;;;;;18.80;25.60;;;;;;5093201;28;19923;-44